sensor_id;sensor_type;location;lat;lon;timestamp;P1;durP1;ratioP1;P2;durP2;ratioP2
27543;SDS011;17996;51.056;3.656;2022-12-18T00:00:46;102.63;;;52.08;;
27543;SDS011;17996;51.056;3.656;2022-12-18T00:03:14;102.18;;;51.75;;
27543;SDS011;17996;51.056;3.656;2022-12-18T00:05:46;111.18;;;53.60;;
27543;SDS011;17996;51.056;3.656;2022-12-18T00:08:16;102.32;;;51.60;;
27543;SDS011;17996;51.056;3.656;2022-12-18T00:10:43;105.32;;;51.50;;
27543;SDS011;17996;51.056;3.656;2022-12-18T00:13:10;102.85;;;52.70;;
27543;SDS011;17996;51.056;3.656;2022-12-18T00:15:37;112.15;;;51.88;;
27543;SDS011;17996;51.056;3.656;2022-12-18T00:18:04;111.05;;;51.17;;
27543;SDS011;17996;51.056;3.656;2022-12-18T00:20:30;108.38;;;52.40;;
27543;SDS011;17996;51.056;3.656;2022-12-18T00:22:56;107.90;;;52.88;;
27543;SDS011;17996;51.056;3.656;2022-12-18T00:25:22;106.50;;;53.45;;
27543;SDS011;17996;51.056;3.656;2022-12-18T00:27:48;120.05;;;56.55;;
27543;SDS011;17996;51.056;3.656;2022-12-18T00:30:13;111.30;;;55.05;;
27543;SDS011;17996;51.056;3.656;2022-12-18T00:32:39;112.88;;;53.63;;
27543;SDS011;17996;51.056;3.656;2022-12-18T00:35:05;117.53;;;55.38;;
27543;SDS011;17996;51.056;3.656;2022-12-18T00:37:33;117.00;;;55.80;;
27543;SDS011;17996;51.056;3.656;2022-12-18T00:39:59;113.75;;;55.25;;
27543;SDS011;17996;51.056;3.656;2022-12-18T00:42:25;107.72;;;53.90;;
27543;SDS011;17996;51.056;3.656;2022-12-18T00:45:13;112.63;;;52.83;;
27543;SDS011;17996;51.056;3.656;2022-12-18T00:47:39;104.95;;;52.38;;
27543;SDS011;17996;51.056;3.656;2022-12-18T00:50:05;108.07;;;54.15;;
27543;SDS011;17996;51.056;3.656;2022-12-18T00:52:31;119.95;;;58.25;;
27543;SDS011;17996;51.056;3.656;2022-12-18T00:54:57;115.60;;;53.78;;
27543;SDS011;17996;51.056;3.656;2022-12-18T00:57:22;105.60;;;55.38;;
27543;SDS011;17996;51.056;3.656;2022-12-18T00:59:48;116.03;;;53.95;;
27543;SDS011;17996;51.056;3.656;2022-12-18T01:02:14;103.60;;;51.88;;
27543;SDS011;17996;51.056;3.656;2022-12-18T01:04:39;107.25;;;54.75;;
27543;SDS011;17996;51.056;3.656;2022-12-18T01:07:05;110.05;;;53.72;;
27543;SDS011;17996;51.056;3.656;2022-12-18T01:09:31;110.93;;;53.60;;
27543;SDS011;17996;51.056;3.656;2022-12-18T01:11:56;102.38;;;50.42;;
27543;SDS011;17996;51.056;3.656;2022-12-18T01:14:22;113.45;;;52.58;;
27543;SDS011;17996;51.056;3.656;2022-12-18T01:16:47;109.10;;;53.03;;
27543;SDS011;17996;51.056;3.656;2022-12-18T01:19:13;105.63;;;53.95;;
27543;SDS011;17996;51.056;3.656;2022-12-18T01:21:39;103.35;;;51.60;;
27543;SDS011;17996;51.056;3.656;2022-12-18T01:24:04;109.03;;;52.60;;
27543;SDS011;17996;51.056;3.656;2022-12-18T01:26:31;120.30;;;54.17;;
27543;SDS011;17996;51.056;3.656;2022-12-18T01:28:56;109.10;;;52.47;;
27543;SDS011;17996;51.056;3.656;2022-12-18T01:31:26;109.85;;;50.58;;
27543;SDS011;17996;51.056;3.656;2022-12-18T01:33:53;113.47;;;51.08;;
27543;SDS011;17996;51.056;3.656;2022-12-18T01:36:22;108.80;;;52.22;;
27543;SDS011;17996;51.056;3.656;2022-12-18T01:38:50;109.38;;;51.70;;
27543;SDS011;17996;51.056;3.656;2022-12-18T01:41:17;116.20;;;50.13;;
27543;SDS011;17996;51.056;3.656;2022-12-18T01:43:46;86.30;;;42.35;;
27543;SDS011;17996;51.056;3.656;2022-12-18T01:46:23;109.75;;;49.67;;
27543;SDS011;17996;51.056;3.656;2022-12-18T01:48:54;104.18;;;51.00;;
27543;SDS011;17996;51.056;3.656;2022-12-18T01:51:25;103.43;;;49.50;;
27543;SDS011;17996;51.056;3.656;2022-12-18T01:53:52;107.70;;;49.90;;
27543;SDS011;17996;51.056;3.656;2022-12-18T01:56:18;108.30;;;50.15;;
27543;SDS011;17996;51.056;3.656;2022-12-18T01:58:48;107.35;;;50.70;;
27543;SDS011;17996;51.056;3.656;2022-12-18T02:01:20;104.55;;;47.05;;
27543;SDS011;17996;51.056;3.656;2022-12-18T02:03:49;113.15;;;48.65;;
27543;SDS011;17996;51.056;3.656;2022-12-18T02:06:29;109.22;;;50.53;;
27543;SDS011;17996;51.056;3.656;2022-12-18T02:09:07;108.72;;;50.25;;
27543;SDS011;17996;51.056;3.656;2022-12-18T02:11:49;116.13;;;53.55;;
27543;SDS011;17996;51.056;3.656;2022-12-18T02:14:37;111.25;;;49.38;;
27543;SDS011;17996;51.056;3.656;2022-12-18T02:17:19;102.95;;;48.58;;
27543;SDS011;17996;51.056;3.656;2022-12-18T02:23:12;98.50;;;45.95;;
27543;SDS011;17996;51.056;3.656;2022-12-18T02:25:57;106.60;;;49.50;;
27543;SDS011;17996;51.056;3.656;2022-12-18T02:28:28;103.72;;;48.60;;
27543;SDS011;17996;51.056;3.656;2022-12-18T02:31:15;99.40;;;48.35;;
27543;SDS011;17996;51.056;3.656;2022-12-18T02:33:46;109.57;;;52.42;;
27543;SDS011;17996;51.056;3.656;2022-12-18T02:36:14;112.22;;;50.72;;
27543;SDS011;17996;51.056;3.656;2022-12-18T02:38:42;109.00;;;49.73;;
27543;SDS011;17996;51.056;3.656;2022-12-18T02:41:10;108.87;;;48.87;;
27543;SDS011;17996;51.056;3.656;2022-12-18T02:43:38;105.60;;;49.95;;
27543;SDS011;17996;51.056;3.656;2022-12-18T02:49:11;104.75;;;46.22;;
27543;SDS011;17996;51.056;3.656;2022-12-18T02:51:48;95.00;;;45.13;;
27543;SDS011;17996;51.056;3.656;2022-12-18T02:57:16;96.72;;;45.53;;
27543;SDS011;17996;51.056;3.656;2022-12-18T02:59:54;96.68;;;46.00;;
27543;SDS011;17996;51.056;3.656;2022-12-18T03:02:55;94.32;;;47.00;;
27543;SDS011;17996;51.056;3.656;2022-12-18T03:05:28;102.60;;;47.15;;
27543;SDS011;17996;51.056;3.656;2022-12-18T03:08:08;96.40;;;44.63;;
27543;SDS011;17996;51.056;3.656;2022-12-18T03:10:49;93.90;;;43.75;;
27543;SDS011;17996;51.056;3.656;2022-12-18T03:13:30;95.72;;;43.95;;
27543;SDS011;17996;51.056;3.656;2022-12-18T03:16:02;101.95;;;45.42;;
27543;SDS011;17996;51.056;3.656;2022-12-18T03:18:33;87.50;;;43.50;;
27543;SDS011;17996;51.056;3.656;2022-12-18T03:21:02;104.07;;;46.03;;
27543;SDS011;17996;51.056;3.656;2022-12-18T03:23:36;94.68;;;43.42;;
27543;SDS011;17996;51.056;3.656;2022-12-18T03:26:14;89.75;;;42.58;;
27543;SDS011;17996;51.056;3.656;2022-12-18T03:28:44;94.38;;;42.70;;
27543;SDS011;17996;51.056;3.656;2022-12-18T03:31:15;95.00;;;42.80;;
27543;SDS011;17996;51.056;3.656;2022-12-18T03:33:46;97.32;;;44.63;;
27543;SDS011;17996;51.056;3.656;2022-12-18T03:36:16;86.57;;;41.47;;
27543;SDS011;17996;51.056;3.656;2022-12-18T03:38:42;94.72;;;44.03;;
27543;SDS011;17996;51.056;3.656;2022-12-18T03:41:15;99.10;;;43.97;;
27543;SDS011;17996;51.056;3.656;2022-12-18T03:46:44;84.38;;;37.28;;
27543;SDS011;17996;51.056;3.656;2022-12-18T03:49:31;83.80;;;37.35;;
27543;SDS011;17996;51.056;3.656;2022-12-18T03:52:06;88.45;;;39.90;;
27543;SDS011;17996;51.056;3.656;2022-12-18T03:54:38;87.97;;;40.05;;
27543;SDS011;17996;51.056;3.656;2022-12-18T03:57:13;85.47;;;40.33;;
27543;SDS011;17996;51.056;3.656;2022-12-18T03:59:50;80.30;;;36.30;;
27543;SDS011;17996;51.056;3.656;2022-12-18T04:02:21;83.30;;;36.92;;
27543;SDS011;17996;51.056;3.656;2022-12-18T04:04:48;77.97;;;37.53;;
27543;SDS011;17996;51.056;3.656;2022-12-18T04:07:22;77.03;;;37.22;;
27543;SDS011;17996;51.056;3.656;2022-12-18T04:09:49;76.15;;;36.63;;
27543;SDS011;17996;51.056;3.656;2022-12-18T04:12:18;77.00;;;33.90;;
27543;SDS011;17996;51.056;3.656;2022-12-18T04:14:44;74.90;;;34.47;;
27543;SDS011;17996;51.056;3.656;2022-12-18T04:17:10;68.05;;;32.10;;
27543;SDS011;17996;51.056;3.656;2022-12-18T04:19:35;72.38;;;35.90;;
27543;SDS011;17996;51.056;3.656;2022-12-18T04:22:01;72.47;;;35.28;;
27543;SDS011;17996;51.056;3.656;2022-12-18T04:24:27;72.03;;;34.20;;
27543;SDS011;17996;51.056;3.656;2022-12-18T04:26:52;71.82;;;32.33;;
27543;SDS011;17996;51.056;3.656;2022-12-18T04:29:18;71.45;;;33.20;;
27543;SDS011;17996;51.056;3.656;2022-12-18T04:31:43;69.63;;;30.52;;
27543;SDS011;17996;51.056;3.656;2022-12-18T04:34:09;62.72;;;31.48;;
27543;SDS011;17996;51.056;3.656;2022-12-18T04:36:35;70.93;;;32.35;;
27543;SDS011;17996;51.056;3.656;2022-12-18T04:39:00;77.55;;;33.72;;
27543;SDS011;17996;51.056;3.656;2022-12-18T04:41:26;69.22;;;32.47;;
27543;SDS011;17996;51.056;3.656;2022-12-18T04:43:51;68.22;;;31.30;;
27543;SDS011;17996;51.056;3.656;2022-12-18T04:46:17;67.00;;;32.60;;
27543;SDS011;17996;51.056;3.656;2022-12-18T04:48:45;68.75;;;32.13;;
27543;SDS011;17996;51.056;3.656;2022-12-18T04:51:11;69.03;;;32.42;;
27543;SDS011;17996;51.056;3.656;2022-12-18T04:53:37;66.95;;;30.13;;
27543;SDS011;17996;51.056;3.656;2022-12-18T04:56:03;72.57;;;31.77;;
27543;SDS011;17996;51.056;3.656;2022-12-18T04:58:34;71.25;;;31.75;;
27543;SDS011;17996;51.056;3.656;2022-12-18T05:01:00;67.90;;;32.28;;
27543;SDS011;17996;51.056;3.656;2022-12-18T05:03:26;77.38;;;30.55;;
27543;SDS011;17996;51.056;3.656;2022-12-18T05:05:52;68.20;;;31.00;;
27543;SDS011;17996;51.056;3.656;2022-12-18T05:08:18;62.25;;;28.73;;
27543;SDS011;17996;51.056;3.656;2022-12-18T05:10:44;66.53;;;30.63;;
27543;SDS011;17996;51.056;3.656;2022-12-18T05:13:09;75.68;;;32.45;;
27543;SDS011;17996;51.056;3.656;2022-12-18T05:15:35;66.45;;;30.52;;
27543;SDS011;17996;51.056;3.656;2022-12-18T05:18:01;69.05;;;32.22;;
27543;SDS011;17996;51.056;3.656;2022-12-18T05:20:28;63.15;;;29.83;;
27543;SDS011;17996;51.056;3.656;2022-12-18T05:22:53;64.22;;;31.38;;
27543;SDS011;17996;51.056;3.656;2022-12-18T05:25:20;66.72;;;31.20;;
27543;SDS011;17996;51.056;3.656;2022-12-18T05:27:46;68.63;;;32.25;;
27543;SDS011;17996;51.056;3.656;2022-12-18T05:30:12;69.10;;;32.17;;
27543;SDS011;17996;51.056;3.656;2022-12-18T05:32:39;60.38;;;29.85;;
27543;SDS011;17996;51.056;3.656;2022-12-18T05:35:05;62.58;;;29.08;;
27543;SDS011;17996;51.056;3.656;2022-12-18T05:37:32;65.43;;;31.70;;
27543;SDS011;17996;51.056;3.656;2022-12-18T05:39:58;59.97;;;29.05;;
27543;SDS011;17996;51.056;3.656;2022-12-18T05:42:24;70.60;;;30.80;;
27543;SDS011;17996;51.056;3.656;2022-12-18T05:44:50;64.53;;;28.90;;
27543;SDS011;17996;51.056;3.656;2022-12-18T05:47:16;63.10;;;29.20;;
27543;SDS011;17996;51.056;3.656;2022-12-18T05:49:41;61.75;;;30.50;;
27543;SDS011;17996;51.056;3.656;2022-12-18T05:52:07;68.95;;;30.85;;
27543;SDS011;17996;51.056;3.656;2022-12-18T05:54:33;61.78;;;29.55;;
27543;SDS011;17996;51.056;3.656;2022-12-18T05:56:59;66.32;;;29.88;;
27543;SDS011;17996;51.056;3.656;2022-12-18T05:59:25;57.50;;;29.73;;
27543;SDS011;17996;51.056;3.656;2022-12-18T06:01:50;60.03;;;28.80;;
27543;SDS011;17996;51.056;3.656;2022-12-18T06:04:16;59.45;;;28.30;;
27543;SDS011;17996;51.056;3.656;2022-12-18T06:06:42;60.72;;;28.90;;
27543;SDS011;17996;51.056;3.656;2022-12-18T06:09:07;65.97;;;29.88;;
27543;SDS011;17996;51.056;3.656;2022-12-18T06:11:37;58.40;;;28.00;;
27543;SDS011;17996;51.056;3.656;2022-12-18T06:16:30;56.40;;;26.85;;
27543;SDS011;17996;51.056;3.656;2022-12-18T06:19:00;58.08;;;28.00;;
27543;SDS011;17996;51.056;3.656;2022-12-18T06:21:27;54.65;;;25.55;;
27543;SDS011;17996;51.056;3.656;2022-12-18T06:23:53;61.28;;;27.13;;
27543;SDS011;17996;51.056;3.656;2022-12-18T06:26:19;56.63;;;27.80;;
27543;SDS011;17996;51.056;3.656;2022-12-18T06:28:45;58.60;;;27.25;;
27543;SDS011;17996;51.056;3.656;2022-12-18T06:31:11;55.35;;;26.38;;
27543;SDS011;17996;51.056;3.656;2022-12-18T06:33:37;54.08;;;26.95;;
27543;SDS011;17996;51.056;3.656;2022-12-18T06:36:04;52.33;;;25.55;;
27543;SDS011;17996;51.056;3.656;2022-12-18T06:38:32;50.90;;;24.85;;
27543;SDS011;17996;51.056;3.656;2022-12-18T06:40:59;48.33;;;24.17;;
27543;SDS011;17996;51.056;3.656;2022-12-18T06:43:25;55.30;;;25.63;;
27543;SDS011;17996;51.056;3.656;2022-12-18T06:45:50;50.20;;;24.17;;
27543;SDS011;17996;51.056;3.656;2022-12-18T06:48:18;54.88;;;25.75;;
27543;SDS011;17996;51.056;3.656;2022-12-18T06:50:45;53.92;;;24.42;;
27543;SDS011;17996;51.056;3.656;2022-12-18T06:53:10;53.60;;;25.75;;
27543;SDS011;17996;51.056;3.656;2022-12-18T06:55:37;48.08;;;23.58;;
27543;SDS011;17996;51.056;3.656;2022-12-18T06:58:03;50.80;;;23.90;;
27543;SDS011;17996;51.056;3.656;2022-12-18T07:00:29;45.63;;;23.35;;
27543;SDS011;17996;51.056;3.656;2022-12-18T07:02:54;45.83;;;22.85;;
27543;SDS011;17996;51.056;3.656;2022-12-18T07:05:20;46.35;;;22.65;;
27543;SDS011;17996;51.056;3.656;2022-12-18T07:07:45;49.20;;;22.67;;
27543;SDS011;17996;51.056;3.656;2022-12-18T07:10:11;42.58;;;20.88;;
27543;SDS011;17996;51.056;3.656;2022-12-18T07:12:37;44.65;;;22.10;;
27543;SDS011;17996;51.056;3.656;2022-12-18T07:15:03;45.50;;;23.40;;
27543;SDS011;17996;51.056;3.656;2022-12-18T07:17:29;45.08;;;22.58;;
27543;SDS011;17996;51.056;3.656;2022-12-18T07:19:54;45.90;;;22.85;;
27543;SDS011;17996;51.056;3.656;2022-12-18T07:22:20;47.35;;;23.23;;
27543;SDS011;17996;51.056;3.656;2022-12-18T07:24:46;48.80;;;23.52;;
27543;SDS011;17996;51.056;3.656;2022-12-18T07:27:12;42.28;;;22.33;;
27543;SDS011;17996;51.056;3.656;2022-12-18T07:29:37;47.13;;;21.35;;
27543;SDS011;17996;51.056;3.656;2022-12-18T07:32:03;49.88;;;22.20;;
27543;SDS011;17996;51.056;3.656;2022-12-18T07:34:29;43.45;;;21.08;;
27543;SDS011;17996;51.056;3.656;2022-12-18T07:36:55;42.53;;;20.48;;
27543;SDS011;17996;51.056;3.656;2022-12-18T07:39:21;51.17;;;22.20;;
27543;SDS011;17996;51.056;3.656;2022-12-18T07:41:48;44.35;;;21.10;;
27543;SDS011;17996;51.056;3.656;2022-12-18T07:44:33;38.70;;;19.40;;
27543;SDS011;17996;51.056;3.656;2022-12-18T07:46:59;37.10;;;19.25;;
27543;SDS011;17996;51.056;3.656;2022-12-18T07:49:24;34.20;;;18.23;;
27543;SDS011;17996;51.056;3.656;2022-12-18T07:51:53;39.45;;;19.23;;
27543;SDS011;17996;51.056;3.656;2022-12-18T07:54:23;36.00;;;19.50;;
27543;SDS011;17996;51.056;3.656;2022-12-18T07:56:49;39.00;;;20.00;;
27543;SDS011;17996;51.056;3.656;2022-12-18T07:59:16;36.67;;;19.30;;
27543;SDS011;17996;51.056;3.656;2022-12-18T08:01:41;38.85;;;19.90;;
27543;SDS011;17996;51.056;3.656;2022-12-18T08:04:07;39.95;;;19.77;;
27543;SDS011;17996;51.056;3.656;2022-12-18T08:06:33;40.28;;;21.20;;
27543;SDS011;17996;51.056;3.656;2022-12-18T08:08:58;37.38;;;20.02;;
27543;SDS011;17996;51.056;3.656;2022-12-18T08:11:25;45.92;;;23.25;;
27543;SDS011;17996;51.056;3.656;2022-12-18T08:13:52;45.60;;;21.55;;
27543;SDS011;17996;51.056;3.656;2022-12-18T08:16:18;47.40;;;21.77;;
27543;SDS011;17996;51.056;3.656;2022-12-18T08:18:44;42.88;;;22.30;;
27543;SDS011;17996;51.056;3.656;2022-12-18T08:21:14;48.58;;;22.98;;
27543;SDS011;17996;51.056;3.656;2022-12-18T08:23:43;41.47;;;22.23;;
27543;SDS011;17996;51.056;3.656;2022-12-18T08:26:09;44.83;;;23.52;;
27543;SDS011;17996;51.056;3.656;2022-12-18T08:28:36;43.67;;;23.67;;
27543;SDS011;17996;51.056;3.656;2022-12-18T08:31:01;41.85;;;23.02;;
27543;SDS011;17996;51.056;3.656;2022-12-18T08:33:27;44.15;;;22.60;;
27543;SDS011;17996;51.056;3.656;2022-12-18T08:35:53;42.63;;;22.27;;
27543;SDS011;17996;51.056;3.656;2022-12-18T08:38:18;45.65;;;23.90;;
27543;SDS011;17996;51.056;3.656;2022-12-18T08:40:44;43.65;;;24.02;;
27543;SDS011;17996;51.056;3.656;2022-12-18T08:43:10;44.60;;;22.98;;
27543;SDS011;17996;51.056;3.656;2022-12-18T08:45:54;50.75;;;23.58;;
27543;SDS011;17996;51.056;3.656;2022-12-18T08:48:20;49.88;;;24.58;;
27543;SDS011;17996;51.056;3.656;2022-12-18T08:50:58;48.25;;;25.50;;
27543;SDS011;17996;51.056;3.656;2022-12-18T08:53:25;53.67;;;26.60;;
27543;SDS011;17996;51.056;3.656;2022-12-18T08:55:52;47.17;;;23.85;;
27543;SDS011;17996;51.056;3.656;2022-12-18T08:58:18;47.42;;;24.27;;
27543;SDS011;17996;51.056;3.656;2022-12-18T09:00:46;43.42;;;22.92;;
27543;SDS011;17996;51.056;3.656;2022-12-18T09:03:12;46.72;;;24.08;;
27543;SDS011;17996;51.056;3.656;2022-12-18T09:05:39;46.83;;;23.45;;
27543;SDS011;17996;51.056;3.656;2022-12-18T09:08:05;43.63;;;23.33;;
27543;SDS011;17996;51.056;3.656;2022-12-18T09:10:31;38.60;;;20.70;;
27543;SDS011;17996;51.056;3.656;2022-12-18T09:12:57;35.63;;;20.80;;
27543;SDS011;17996;51.056;3.656;2022-12-18T09:15:22;40.47;;;21.13;;
27543;SDS011;17996;51.056;3.656;2022-12-18T09:17:48;40.90;;;20.88;;
27543;SDS011;17996;51.056;3.656;2022-12-18T09:20:15;40.33;;;20.65;;
27543;SDS011;17996;51.056;3.656;2022-12-18T09:22:41;37.72;;;19.88;;
27543;SDS011;17996;51.056;3.656;2022-12-18T09:25:08;43.60;;;22.98;;
27543;SDS011;17996;51.056;3.656;2022-12-18T09:27:34;44.50;;;21.80;;
27543;SDS011;17996;51.056;3.656;2022-12-18T09:30:00;39.92;;;21.08;;
27543;SDS011;17996;51.056;3.656;2022-12-18T09:32:26;41.80;;;21.80;;
27543;SDS011;17996;51.056;3.656;2022-12-18T09:34:52;42.95;;;21.83;;
27543;SDS011;17996;51.056;3.656;2022-12-18T09:37:18;49.97;;;24.23;;
27543;SDS011;17996;51.056;3.656;2022-12-18T09:39:44;60.47;;;30.23;;
27543;SDS011;17996;51.056;3.656;2022-12-18T09:42:15;64.25;;;30.58;;
27543;SDS011;17996;51.056;3.656;2022-12-18T09:44:45;55.70;;;27.90;;
27543;SDS011;17996;51.056;3.656;2022-12-18T09:47:23;55.97;;;30.02;;
27543;SDS011;17996;51.056;3.656;2022-12-18T09:49:58;58.50;;;29.98;;
27543;SDS011;17996;51.056;3.656;2022-12-18T09:52:27;42.35;;;23.13;;
27543;SDS011;17996;51.056;3.656;2022-12-18T09:57:57;38.13;;;22.05;;
27543;SDS011;17996;51.056;3.656;2022-12-18T10:00:29;36.53;;;19.75;;
27543;SDS011;17996;51.056;3.656;2022-12-18T10:03:11;36.90;;;21.08;;
27543;SDS011;17996;51.056;3.656;2022-12-18T10:10:53;35.70;;;20.02;;
27543;SDS011;17996;51.056;3.656;2022-12-18T10:16:12;27.73;;;14.80;;
27543;SDS011;17996;51.056;3.656;2022-12-18T10:21:38;36.70;;;19.63;;
27543;SDS011;17996;51.056;3.656;2022-12-18T10:26:45;36.67;;;20.33;;
27543;SDS011;17996;51.056;3.656;2022-12-18T10:29:13;38.83;;;21.45;;
27543;SDS011;17996;51.056;3.656;2022-12-18T10:31:40;37.83;;;21.90;;
27543;SDS011;17996;51.056;3.656;2022-12-18T10:34:25;37.85;;;20.58;;
27543;SDS011;17996;51.056;3.656;2022-12-18T10:36:51;42.67;;;22.75;;
27543;SDS011;17996;51.056;3.656;2022-12-18T10:39:20;40.88;;;22.70;;
27543;SDS011;17996;51.056;3.656;2022-12-18T10:41:48;38.10;;;23.25;;
27543;SDS011;17996;51.056;3.656;2022-12-18T10:46:54;38.00;;;20.58;;
27543;SDS011;17996;51.056;3.656;2022-12-18T10:49:28;35.25;;;19.75;;
27543;SDS011;17996;51.056;3.656;2022-12-18T10:54:52;39.00;;;20.70;;
27543;SDS011;17996;51.056;3.656;2022-12-18T10:57:37;40.53;;;21.25;;
27543;SDS011;17996;51.056;3.656;2022-12-18T11:02:54;43.50;;;24.05;;
27543;SDS011;17996;51.056;3.656;2022-12-18T11:05:25;39.78;;;23.75;;
27543;SDS011;17996;51.056;3.656;2022-12-18T11:07:53;40.05;;;22.23;;
27543;SDS011;17996;51.056;3.656;2022-12-18T11:10:20;36.10;;;21.20;;
27543;SDS011;17996;51.056;3.656;2022-12-18T11:12:51;34.15;;;20.45;;
27543;SDS011;17996;51.056;3.656;2022-12-18T11:15:19;35.60;;;20.65;;
27543;SDS011;17996;51.056;3.656;2022-12-18T11:20:21;33.65;;;18.85;;
27543;SDS011;17996;51.056;3.656;2022-12-18T11:23:01;36.03;;;20.48;;
27543;SDS011;17996;51.056;3.656;2022-12-18T11:25:36;34.42;;;19.63;;
27543;SDS011;17996;51.056;3.656;2022-12-18T11:28:06;35.85;;;19.20;;
27543;SDS011;17996;51.056;3.656;2022-12-18T11:33:52;39.88;;;19.58;;
27543;SDS011;17996;51.056;3.656;2022-12-18T11:36:19;36.75;;;20.55;;
27543;SDS011;17996;51.056;3.656;2022-12-18T11:38:46;36.08;;;18.63;;
27543;SDS011;17996;51.056;3.656;2022-12-18T11:44:11;35.47;;;19.08;;
27543;SDS011;17996;51.056;3.656;2022-12-18T11:47:00;35.45;;;18.15;;
27543;SDS011;17996;51.056;3.656;2022-12-18T11:49:33;33.70;;;17.92;;
27543;SDS011;17996;51.056;3.656;2022-12-18T11:54:34;37.65;;;19.55;;
27543;SDS011;17996;51.056;3.656;2022-12-18T12:05:20;42.35;;;21.75;;
27543;SDS011;17996;51.056;3.656;2022-12-18T12:08:12;42.42;;;22.23;;
27543;SDS011;17996;51.056;3.656;2022-12-18T12:18:35;46.45;;;23.15;;
27543;SDS011;17996;51.056;3.656;2022-12-18T12:38:04;42.33;;;23.30;;
27543;SDS011;17996;51.056;3.656;2022-12-18T12:40:49;41.58;;;23.13;;
27543;SDS011;17996;51.056;3.656;2022-12-18T12:43:28;42.55;;;23.38;;
27543;SDS011;17996;51.056;3.656;2022-12-18T12:46:12;46.53;;;24.13;;
27543;SDS011;17996;51.056;3.656;2022-12-18T12:53:50;46.45;;;24.52;;
27543;SDS011;17996;51.056;3.656;2022-12-18T12:56:17;45.38;;;24.85;;
27543;SDS011;17996;51.056;3.656;2022-12-18T13:04:40;49.13;;;26.63;;
27543;SDS011;17996;51.056;3.656;2022-12-18T13:07:39;54.35;;;27.90;;
27543;SDS011;17996;51.056;3.656;2022-12-18T13:10:48;51.30;;;26.48;;
27543;SDS011;17996;51.056;3.656;2022-12-18T13:15:23;50.58;;;26.17;;
27543;SDS011;17996;51.056;3.656;2022-12-18T13:18:31;56.53;;;29.05;;
27543;SDS011;17996;51.056;3.656;2022-12-18T13:23:26;54.60;;;28.42;;
27543;SDS011;17996;51.056;3.656;2022-12-18T13:31:15;57.47;;;28.15;;
27543;SDS011;17996;51.056;3.656;2022-12-18T13:34:18;51.65;;;28.23;;
27543;SDS011;17996;51.056;3.656;2022-12-18T13:36:44;60.63;;;31.45;;
27543;SDS011;17996;51.056;3.656;2022-12-18T13:41:39;45.55;;;23.10;;
27543;SDS011;17996;51.056;3.656;2022-12-18T13:47:01;58.50;;;29.02;;
27543;SDS011;17996;51.056;3.656;2022-12-18T13:52:21;58.22;;;28.95;;
27543;SDS011;17996;51.056;3.656;2022-12-18T13:54:59;57.47;;;29.88;;
27543;SDS011;17996;51.056;3.656;2022-12-18T13:57:32;53.22;;;29.10;;
27543;SDS011;17996;51.056;3.656;2022-12-18T14:02:58;59.03;;;29.38;;
27543;SDS011;17996;51.056;3.656;2022-12-18T14:05:31;54.72;;;29.63;;
27543;SDS011;17996;51.056;3.656;2022-12-18T14:08:08;58.83;;;30.55;;
27543;SDS011;17996;51.056;3.656;2022-12-18T14:10:42;59.63;;;30.58;;
27543;SDS011;17996;51.056;3.656;2022-12-18T14:13:11;60.03;;;29.48;;
27543;SDS011;17996;51.056;3.656;2022-12-18T14:15:43;62.38;;;30.67;;
27543;SDS011;17996;51.056;3.656;2022-12-18T14:18:26;61.47;;;30.98;;
27543;SDS011;17996;51.056;3.656;2022-12-18T14:21:04;66.68;;;32.47;;
27543;SDS011;17996;51.056;3.656;2022-12-18T14:23:40;62.45;;;30.15;;
27543;SDS011;17996;51.056;3.656;2022-12-18T14:26:23;59.42;;;30.25;;
27543;SDS011;17996;51.056;3.656;2022-12-18T14:28:57;55.60;;;29.80;;
27543;SDS011;17996;51.056;3.656;2022-12-18T14:31:27;63.97;;;31.42;;
27543;SDS011;17996;51.056;3.656;2022-12-18T14:33:54;59.47;;;28.92;;
27543;SDS011;17996;51.056;3.656;2022-12-18T14:36:22;67.10;;;33.22;;
27543;SDS011;17996;51.056;3.656;2022-12-18T14:38:55;59.95;;;30.75;;
27543;SDS011;17996;51.056;3.656;2022-12-18T14:41:22;63.75;;;31.80;;
27543;SDS011;17996;51.056;3.656;2022-12-18T14:43:50;60.33;;;32.05;;
27543;SDS011;17996;51.056;3.656;2022-12-18T14:46:36;67.70;;;32.85;;
27543;SDS011;17996;51.056;3.656;2022-12-18T14:49:27;65.70;;;30.52;;
27543;SDS011;17996;51.056;3.656;2022-12-18T14:51:59;51.92;;;27.52;;
27543;SDS011;17996;51.056;3.656;2022-12-18T14:54:27;56.88;;;27.90;;
27543;SDS011;17996;51.056;3.656;2022-12-18T14:59:47;61.00;;;30.40;;
27543;SDS011;17996;51.056;3.656;2022-12-18T15:04:44;63.53;;;32.95;;
27543;SDS011;17996;51.056;3.656;2022-12-18T15:09:36;65.82;;;31.00;;
27543;SDS011;17996;51.056;3.656;2022-12-18T15:12:03;61.55;;;32.88;;
27543;SDS011;17996;51.056;3.656;2022-12-18T15:17:18;62.40;;;30.83;;
27543;SDS011;17996;51.056;3.656;2022-12-18T15:19:46;59.45;;;30.02;;
27543;SDS011;17996;51.056;3.656;2022-12-18T15:22:26;66.88;;;30.45;;
27543;SDS011;17996;51.056;3.656;2022-12-18T15:24:54;58.60;;;28.98;;
27543;SDS011;17996;51.056;3.656;2022-12-18T15:27:39;62.10;;;30.95;;
27543;SDS011;17996;51.056;3.656;2022-12-18T15:32:43;60.50;;;31.83;;
27543;SDS011;17996;51.056;3.656;2022-12-18T15:35:22;60.30;;;31.15;;
27543;SDS011;17996;51.056;3.656;2022-12-18T15:37:50;63.30;;;32.38;;
27543;SDS011;17996;51.056;3.656;2022-12-18T15:40:20;59.33;;;30.77;;
27543;SDS011;17996;51.056;3.656;2022-12-18T15:42:49;70.70;;;33.08;;
27543;SDS011;17996;51.056;3.656;2022-12-18T15:45:37;58.60;;;30.30;;
27543;SDS011;17996;51.056;3.656;2022-12-18T15:48:24;64.28;;;31.70;;
27543;SDS011;17996;51.056;3.656;2022-12-18T15:50:50;69.18;;;32.50;;
27543;SDS011;17996;51.056;3.656;2022-12-18T15:53:17;66.80;;;32.95;;
27543;SDS011;17996;51.056;3.656;2022-12-18T15:55:44;68.80;;;35.78;;
27543;SDS011;17996;51.056;3.656;2022-12-18T15:58:46;65.72;;;32.42;;
27543;SDS011;17996;51.056;3.656;2022-12-18T16:01:12;70.00;;;35.50;;
27543;SDS011;17996;51.056;3.656;2022-12-18T16:03:38;68.15;;;33.67;;
27543;SDS011;17996;51.056;3.656;2022-12-18T16:06:04;73.55;;;33.90;;
27543;SDS011;17996;51.056;3.656;2022-12-18T16:08:30;72.72;;;35.70;;
27543;SDS011;17996;51.056;3.656;2022-12-18T16:10:56;70.38;;;33.42;;
27543;SDS011;17996;51.056;3.656;2022-12-18T16:13:23;61.13;;;31.35;;
27543;SDS011;17996;51.056;3.656;2022-12-18T16:15:49;73.68;;;34.75;;
27543;SDS011;17996;51.056;3.656;2022-12-18T16:18:14;77.18;;;35.38;;
27543;SDS011;17996;51.056;3.656;2022-12-18T16:20:40;76.00;;;35.80;;
27543;SDS011;17996;51.056;3.656;2022-12-18T16:23:06;84.45;;;37.13;;
27543;SDS011;17996;51.056;3.656;2022-12-18T16:25:32;74.03;;;36.35;;
27543;SDS011;17996;51.056;3.656;2022-12-18T16:27:58;66.32;;;32.65;;
27543;SDS011;17996;51.056;3.656;2022-12-18T16:30:24;65.80;;;33.03;;
27543;SDS011;17996;51.056;3.656;2022-12-18T16:32:56;67.80;;;33.75;;
27543;SDS011;17996;51.056;3.656;2022-12-18T16:35:22;66.82;;;31.95;;
27543;SDS011;17996;51.056;3.656;2022-12-18T16:37:48;63.47;;;32.78;;
27543;SDS011;17996;51.056;3.656;2022-12-18T16:40:15;64.22;;;31.70;;
27543;SDS011;17996;51.056;3.656;2022-12-18T16:42:42;68.35;;;33.15;;